Flight Track Log - Related Links

Times and Time Zones

All times are in EDT time to prevent confusion due to time zone crossing. See the UAL1084 flight status page for this flight to view local times or setup timezone preferences in your user account.

Time Position Orientation Groundspeed Altitude Reporting Facility
EDT Latitude Longitude Course Direction KTS MPH feet Rate Location/Type
Fri 04:50:17 PM 29.9786 -95.2981 339° North 156 180 800  Level Houston Center
Fri 04:51:00 PM 30.0106 -95.2797 26° Northeast 235 270 2,000 1,846 Climbing Houston Center
Fri 04:52:01 PM 30.0775 -95.3006 345° North 273 314 4,000 1,791 Climbing Houston Center
Fri 04:52:07 PM 30.0875 -95.3044 341° North 259 298 4,000 448 Level Houston Center
Fri 04:53:00 PM 30.4012 -95.5993 337° Northwest  Level Estimated
Fri 04:53:08 PM 30.1642 -95.3286 345° North 282 325 4,500  Level Houston Center
Fri 04:53:09 PM 30.1631 -95.3267 123° Southeast 275 316 4,400 3,281 Descending Houston Center
Fri 04:54:00 PM 30.5054 -95.6641 334° Northwest  Level Estimated
Fri 04:54:12 PM 30.2261 -95.3800 324° Northwest 279 321 8,000  Level Houston Center
Fri 04:55:00 PM 30.6155 -95.7137 339° North  Level FlightAware Approximate
Fri 04:55:14 PM 30.2892 -95.4353 323° Northwest 283 326 11,300  Level Houston Center
Fri 04:56:16 PM 30.3617 -95.4983 323° Northwest 313 360 13,700 2,565 Climbing Houston Center
Fri 04:57:18 PM 30.4375 -95.5642 323° Northwest 339 390 16,600 2,516 Climbing Houston Center
Fri 04:58:20 PM 30.5328 -95.6489 323° Northwest 359 413 18,900 2,129 Climbing Houston Center
Fri 04:59:22 PM 30.6353 -95.7042 335° Northwest 401 461 21,000 2,177 Climbing Houston Center
Fri 05:00:24 PM 30.7500 -95.7656 335° Northwest 411 473 23,400 2,081 Climbing Houston Center
Fri 05:01:26 PM 30.8572 -95.8242 335° Northwest 419 482 25,300 1,258 Climbing Houston Center
Fri 05:02:28 PM 30.9681 -95.8833 335° Northwest 430 495 26,000 339 Climbing Houston Center
Fri 05:03:30 PM 31.0786 -95.9417 336° Northwest 434 499 26,000 192 Level Houston Center
Fri 05:04:33 PM 31.1911 -95.9939 338° Northwest 435 501 26,400 1,104 Climbing Houston Center
Fri 05:05:35 PM 31.3075 -96.0386 342° North 437 503 28,300 1,645 Climbing Houston Center
Fri 05:06:37 PM 31.4333 -96.0867 342° North 442 509 29,800 1,355 Climbing Houston Center
Fri 05:07:39 PM 31.5547 -96.1339 342° North 454 522 31,100 1,515 Climbing Houston Center
Fri 05:08:20 PM 31.6539 -96.1711 342° North 452 520 32,400 1,842 Climbing Fort Worth Center
Fri 05:09:20 PM 31.7733 -96.2183 341° North 447 514 34,200 1,500 Climbing Fort Worth Center
Fri 05:10:20 PM 31.8742 -96.2636 339° North 441 507 35,400 1,350 Climbing Fort Worth Center
Fri 05:11:20 PM 31.9914 -96.3061 343° North 435 501 36,900 1,300 Climbing Fort Worth Center
Fri 05:12:20 PM 32.1044 -96.3539 340° North 430 495 38,000 992 Climbing Fort Worth Center
Fri 05:13:21 PM 32.2175 -96.3967 342° North 425 489 38,900 850 Climbing Fort Worth Center
Fri 05:14:20 PM 32.3306 -96.4397 342° North 425 489 39,700 504 Climbing Fort Worth Center
Fri 05:15:20 PM 32.4436 -96.4828 342° North 425 489 39,900 100 Climbing Fort Worth Center
Fri 05:16:20 PM 32.5525 -96.5236 342° North 425 489 39,900  Level Fort Worth Center
Fri 05:17:20 PM 32.6697 -96.5669 343° North 425 489 39,900  Level Fort Worth Center
Fri 05:18:20 PM 32.7808 -96.6078 343° North 425 489 39,900  Level Fort Worth Center
Fri 05:19:21 PM 32.8917 -96.6514 342° North 425 489 39,900 50 Level Fort Worth Center
Fri 05:20:20 PM 33.0069 -96.7172 334° Northwest 425 489 40,000 50 Climbing Fort Worth Center
Fri 05:21:20 PM 33.1114 -96.7736 336° Northwest 415 478 40,000  Level Fort Worth Center
Fri 05:22:21 PM 33.2183 -96.8325 335° Northwest 415 478 40,000 -50 Level Fort Worth Center
Fri 05:23:20 PM 33.3208 -96.8939 333° Northwest 415 478 39,900 -50 Descending Fort Worth Center
Fri 05:24:20 PM 33.4294 -96.9531 336° Northwest 415 478 39,900  Level Fort Worth Center
Fri 05:25:21 PM 33.5319 -97.0122 334° Northwest 415 478 39,900  Level Fort Worth Center
Fri 05:26:20 PM 33.6367 -97.0717 335° Northwest 415 478 39,900  Level Fort Worth Center
Fri 05:27:20 PM 33.7411 -97.1336 334° Northwest 410 472 39,900  Level Fort Worth Center
Fri 05:28:21 PM 33.8456 -97.1933 335° Northwest 410 472 39,900  Level Fort Worth Center
Fri 05:29:20 PM 33.9500 -97.2508 335° Northwest 405 466 39,900  Level Fort Worth Center
Fri 05:30:20 PM 34.0544 -97.3133 334° Northwest 405 466 39,900 50 Level Fort Worth Center
Fri 05:31:20 PM 34.1442 -97.3708 332° Northwest 405 466 40,000  Climbing Fort Worth Center
Fri 05:32:20 PM 34.2464 -97.4286 335° Northwest 400 460 39,900 -50 Descending Fort Worth Center
Fri 05:33:20 PM 34.3506 -97.4914 334° Northwest 405 466 39,900  Level Fort Worth Center
Fri 05:34:21 PM 34.4569 -97.5519 335° Northwest 405 466 39,900  Level Fort Worth Center
Fri 05:35:20 PM 34.5614 -97.6128 334° Northwest 405 466 39,900  Level Fort Worth Center
Fri 05:36:20 PM 34.6697 -97.6736 335° Northwest 405 466 39,900  Level Fort Worth Center
Fri 05:37:20 PM 34.7739 -97.7347 334° Northwest 410 472 39,900  Level Fort Worth Center
Fri 05:38:20 PM 34.8781 -97.7983 333° Northwest 410 472 39,900 50 Level Fort Worth Center
Fri 05:39:20 PM 34.9861 -97.8594 335° Northwest 410 472 40,000  Climbing Fort Worth Center
Fri 05:40:21 PM 35.0922 -97.9236 334° Northwest 415 478 39,900 -50 Descending Fort Worth Center
Fri 05:41:20 PM 35.1983 -97.9878 334° Northwest 420 483 39,900  Level Fort Worth Center
Fri 05:42:20 PM 35.3067 -98.0494 335° Northwest 420 483 39,900  Level Fort Worth Center
Fri 05:43:20 PM 35.4125 -98.1114 335° Northwest 420 483 39,900 31 Level Fort Worth Center
Fri 05:45:35 PM 35.6483 -98.2478 335° Northwest 425 489 40,000  Climbing Kansas City Center
Fri 05:46:35 PM 35.7617 -98.3156 334° Northwest 428 493 39,900 -49 Descending Kansas City Center
Fri 05:47:37 PM 35.8694 -98.3792 334° Northwest 430 495 39,900  Level Kansas City Center
Fri 05:48:41 PM 35.9764 -98.4450 334° Northwest 430 495 39,900  Level Kansas City Center
Fri 05:49:41 PM 36.0833 -98.5081 335° Northwest 429 494 39,900 48 Level Kansas City Center
Fri 05:50:45 PM 36.1889 -98.5733 333° Northwest 427 491 40,000 48 Climbing Kansas City Center
Fri 05:51:46 PM 36.3178 -98.6514 334° Northwest 430 495 40,000 -48 Level Kansas City Center
Fri 05:52:50 PM 36.4256 -98.7175 334° Northwest 432 497 39,900 -48 Descending Kansas City Center
Fri 05:53:51 PM 36.5328 -98.7844 333° Northwest 434 499 39,900  Level Kansas City Center
Fri 05:54:52 PM 36.6414 -98.8497 334° Northwest 434 499 39,900 48 Level Kansas City Center
Fri 05:55:56 PM 36.7497 -98.9161 334° Northwest 433 498 40,000 48 Climbing Kansas City Center
Fri 05:56:56 PM 36.8806 -98.9972 334° Northwest 437 503 40,000 -50 Level Kansas City Center
Fri 05:57:57 PM 36.9900 -99.0667 333° Northwest 438 504 39,900  Descending Kansas City Center
Fri 05:58:59 PM 37.0997 -99.1336 334° Northwest 439 505 40,000  Climbing Kansas City Center
Fri 06:00:03 PM 37.2097 -99.2044 333° Northwest 442 509 39,900  Descending Kansas City Center
Fri 06:01:04 PM 37.3328 -99.2806 334° Northwest 444 511 40,000  Climbing Kansas City Center
Fri 06:02:07 PM 37.4447 -99.3519 333° Northwest 447 514 39,900 -48 Descending Kansas City Center
Fri 06:03:08 PM 37.5564 -99.4233 333° Northwest 447 514 39,900  Level Kansas City Center
Fri 06:04:11 PM 37.6797 -99.5011 333° Northwest 450 518 39,900  Level Kansas City Center
Fri 06:05:12 PM 37.7867 -99.5697 333° Northwest 450 518 39,900 48 Level Kansas City Center
Fri 06:06:15 PM 37.9136 -99.6511 333° Northwest 455 524 40,000  Climbing Kansas City Center
Fri 06:07:16 PM 38.0231 -99.7222 333° Northwest 460 529 39,900 -48 Descending Kansas City Center
Fri 06:08:19 PM 38.1522 -99.8044 333° Northwest 464 534 39,900  Level Kansas City Center
Fri 06:09:20 PM 38.2603 -99.8744 333° Northwest 461 531 39,900  Level Kansas City Center
Fri 06:10:23 PM 38.3803 -99.9528 333° Northwest 444 511 39,900  Level Kansas City Center
Fri 06:11:27 PM 38.4831 -100.0206 333° Northwest 438 504 39,900  Level Kansas City Center
Fri 06:12:27 PM 38.6039 -100.0989 333° Northwest 437 503 39,900  Level Kansas City Center
Fri 06:13:30 PM 38.7083 -100.1658 333° Northwest 439 505 39,900  Level Kansas City Center
Fri 06:14:32 PM 38.8306 -100.2464 333° Northwest 441 507 39,900  Level Kansas City Center
Fri 06:15:27 PM 38.9342 -100.3161 332° Northwest 441 507 39,900 51 Level Denver Center
Fri 06:16:30 PM 39.0464 -100.3897 333° Northwest 443 510 40,000 48 Climbing Denver Center
Fri 06:17:32 PM 39.1503 -100.4586 333° Northwest 440 506 40,000 -48 Level Denver Center
Fri 06:18:34 PM 39.2731 -100.5403 333° Northwest 442 509 39,900  Descending Denver Center
Fri 06:19:36 PM 39.3778 -100.6094 333° Northwest 442 509 40,000 48 Climbing Denver Center
Fri 06:20:38 PM 39.5003 -100.6931 332° Northwest 445 512 40,000 -48 Level Denver Center
Fri 06:21:40 PM 39.6050 -100.7653 332° Northwest 444 511 39,900  Descending Denver Center
Fri 06:22:42 PM 39.7278 -100.8467 333° Northwest 444 511 40,000  Climbing Denver Center
Fri 06:23:44 PM 39.8339 -100.9194 332° Northwest 448 516 39,900 -48 Descending Denver Center
Fri 06:24:46 PM 39.9581 -101.0047 332° Northwest 451 519 39,900 48 Level Denver Center
Fri 06:25:48 PM 40.0653 -101.0775 333° Northwest 452 520 40,000 48 Climbing Denver Center
Fri 06:26:50 PM 40.1728 -101.1511 332° Northwest 453 521 40,000 -48 Level Denver Center
Fri 06:27:52 PM 40.3011 -101.2400 332° Northwest 463 533 39,900  Descending Denver Center
Fri 06:28:54 PM 40.4100 -101.3156 332° Northwest 461 531 40,000  Climbing Denver Center
Fri 06:29:56 PM 40.5383 -101.4047 332° Northwest 464 534 39,900  Descending Denver Center
Fri 06:30:58 PM 40.6483 -101.4819 332° Northwest 464 534 40,000  Climbing Denver Center
Fri 06:32:00 PM 40.7764 -101.5722 332° Northwest 465 535 39,900 -48 Descending Denver Center
Fri 06:33:03 PM 40.8853 -101.6492 332° Northwest 463 533 39,900  Level Denver Center
Fri 06:34:05 PM 40.9914 -101.7247 332° Northwest 455 524 39,900  Level Denver Center
Fri 06:35:07 PM 41.1189 -101.8144 332° Northwest 461 531 39,900  Level Denver Center
Fri 06:36:09 PM 41.2269 -101.8906 332° Northwest 459 528 39,900 48 Level Denver Center
Fri 06:37:11 PM 41.3522 -101.9811 332° Northwest 458 527 40,000  Climbing Denver Center
Fri 06:38:13 PM 41.4592 -102.0581 332° Northwest 456 525 39,900  Descending Denver Center
Fri 06:39:15 PM 41.5847 -102.1475 332° Northwest 458 527 40,000  Climbing Denver Center
Fri 06:40:17 PM 41.6928 -102.2256 332° Northwest 460 529 39,900  Descending Denver Center
Fri 06:41:19 PM 41.8150 -102.3136 332° Northwest 460 529 40,000 48 Climbing Denver Center
Fri 06:42:21 PM 41.9200 -102.3931 331° Northwest 456 525 40,000  Level Denver Center
Fri 06:43:23 PM 42.0467 -102.4850 332° Northwest 461 531 40,000  Level Denver Center
Fri 06:44:25 PM 42.1542 -102.5644 331° Northwest 462 532 40,000  Level Denver Center
Fri 06:45:27 PM 42.2806 -102.6561 332° Northwest 464 534 40,000 -48 Level Denver Center
Fri 06:46:29 PM 42.3881 -102.7358 331° Northwest 462 532 39,900 -48 Descending Denver Center
Fri 06:47:31 PM 42.5117 -102.8300 331° Northwest 457 526 39,900 48 Level Denver Center
Fri 06:48:33 PM 42.6178 -102.9100 331° Northwest 456 525 40,000  Climbing Denver Center
Fri 06:49:35 PM 42.7422 -103.0022 331° Northwest 456 525 39,900  Descending Denver Center
Fri 06:50:37 PM 42.8489 -103.0814 331° Northwest 458 527 40,000  Climbing Denver Center
Fri 06:51:40 PM 42.9719 -103.1764 331° Northwest 457 526 39,900 -48 Descending Denver Center
Fri 06:52:42 PM 43.0786 -103.2569 331° Northwest 459 528 39,900  Level Denver Center
Fri 06:53:44 PM 43.2025 -103.3531 331° Northwest 459 528 39,900  Level Denver Center
Fri 06:54:46 PM 43.3067 -103.4339 331° Northwest 453 521 39,900  Level Denver Center
Fri 06:55:48 PM 43.4303 -103.5278 331° Northwest 454 522 39,900  Level Denver Center
Fri 06:56:50 PM 43.5361 -103.6103 331° Northwest 458 527 39,900  Level Denver Center
Fri 06:57:52 PM 43.6556 -103.7031 331° Northwest 447 514 39,900 48 Level Denver Center
Fri 06:58:54 PM 43.7581 -103.7839 330° Northwest 445 512 40,000 48 Climbing Denver Center
Fri 06:59:56 PM 43.8792 -103.8797 330° Northwest 448 516 40,000  Level Denver Center
Fri 07:00:58 PM 43.9811 -103.9589 331° Northwest 442 509 40,000 -48 Level Denver Center
Fri 07:02:00 PM 44.1019 -104.0550 330° Northwest 447 514 39,900  Descending Denver Center
Fri 07:03:02 PM 44.2053 -104.1369 330° Northwest 447 514 40,000  Climbing Denver Center
Fri 07:04:04 PM 44.3258 -104.2336 330° Northwest 448 516 39,900 -48 Descending Denver Center
Fri 07:05:06 PM 44.4300 -104.3167 330° Northwest 450 518 39,900 48 Level Denver Center
Fri 07:06:08 PM 44.5508 -104.4158 330° Northwest 450 518 40,000 48 Climbing Denver Center
Fri 07:07:10 PM 44.6542 -104.4997 330° Northwest 450 518 40,000  Level Denver Center
Fri 07:08:12 PM 44.7592 -104.5847 330° Northwest 453 521 40,000  Level Denver Center
Fri 07:09:14 PM 44.8789 -104.6803 331° Northwest 450 518 40,000  Level Denver Center
Fri 07:10:16 PM 44.9894 -104.7711 330° Northwest 457 526 40,000 -48 Level Denver Center
Fri 07:11:18 PM 45.0981 -104.8617 330° Northwest 456 525 39,900  Descending Denver Center
Fri 07:12:20 PM 45.2069 -104.9522 330° Northwest 456 525 40,000 48 Climbing Denver Center
Fri 07:13:22 PM 45.3367 -105.0600 330° Northwest 453 521 40,000 -48 Level Denver Center
Fri 07:14:24 PM 45.4444 -105.1497 330° Northwest 451 519 39,900  Descending Denver Center
Fri 07:15:26 PM 45.5528 -105.2414 329° Northwest 452 520 40,000  Climbing Denver Center
Fri 07:16:28 PM 45.6586 -105.3300 330° Northwest 447 514 39,900  Descending Denver Center
Fri 07:17:48 PM 45.8089 -105.4581 329° Northwest 448 516 40,000 43 Climbing Salt Lake Center
Fri 07:18:49 PM 45.9142 -105.5478 329° Northwest 444 511 40,000 -49 Level Salt Lake Center
Fri 07:19:51 PM 46.0192 -105.6372 329° Northwest 441 507 39,900 -48 Descending Salt Lake Center
Fri 07:20:53 PM 46.1269 -105.7294 329° Northwest 446 513 39,900  Level Salt Lake Center
Fri 07:21:55 PM 46.2342 -105.8219 329° Northwest 449 517 39,900 48 Level Salt Lake Center
Fri 07:22:57 PM 46.3614 -105.9344 329° Northwest 449 517 40,000 48 Climbing Salt Lake Center
Fri 07:23:59 PM 46.4519 -106.0586 317° Northwest 453 521 40,000 -48 Level Salt Lake Center
Fri 07:25:01 PM 46.5378 -106.1861 314° West 449 517 39,900  Descending Salt Lake Center
Fri 07:26:03 PM 46.6203 -106.3083 315° West 441 507 40,000  Climbing Salt Lake Center
Fri 07:27:05 PM 46.7039 -106.4372 313° West 437 503 39,900  Descending Salt Lake Center
Fri 07:28:06 PM 46.7928 -106.5772 313° West 448 516 40,000  Climbing Salt Lake Center
Fri 07:29:08 PM 46.8958 -106.7347 314° West 450 518 39,900  Descending Salt Lake Center
Fri 07:31:12 PM 47.0658 -107.0006 313° West 450 518 40,000 32 Climbing Salt Lake Center
Fri 07:32:14 PM 47.1511 -107.1339 313° West 450 518 40,000 -48 Level Salt Lake Center
Fri 07:33:16 PM 47.2358 -107.2664 313° West 447 514 39,900 -48 Descending Salt Lake Center
Fri 07:34:18 PM 47.3206 -107.4017 313° West 450 518 39,900  Level Salt Lake Center
Fri 07:35:20 PM 47.4222 -107.5631 313° West 450 518 39,900  Level Salt Lake Center
Fri 07:36:22 PM 47.5017 -107.6919 312° West 446 513 39,900  Level Salt Lake Center
Fri 07:37:24 PM 47.5864 -107.8275 313° West 450 518 39,900  Level Salt Lake Center
Fri 07:38:26 PM 47.6697 -107.9631 312° West 448 516 39,900  Level Salt Lake Center
Fri 07:39:28 PM 47.7539 -108.0992 313° West 449 517 39,900  Level Salt Lake Center
Fri 07:40:30 PM 47.8547 -108.2625 313° West 449 517 39,900  Level Salt Lake Center
Fri 07:41:32 PM 47.9378 -108.4014 312° West 450 518 39,900  Level Salt Lake Center
Fri 07:42:34 PM 48.0211 -108.5394 312° West 449 517 39,900  Level Salt Lake Center
Fri 07:43:36 PM 48.1042 -108.6767 312° West 448 516 39,900  Level Salt Lake Center
Fri 07:44:38 PM 48.1861 -108.8136 312° West 445 512 39,900  Level Salt Lake Center
Fri 07:45:40 PM 48.2675 -108.9494 312° West 442 509 39,900  Level Salt Lake Center
Fri 07:46:42 PM 48.3644 -109.1139 312° West 442 509 39,900  Level Salt Lake Center
Fri 07:47:44 PM 48.4464 -109.2519 312° West 444 511 39,900  Level Salt Lake Center
Fri 07:48:46 PM 48.5264 -109.3894 311° West 441 507 39,900  Level Salt Lake Center
Fri 07:49:48 PM 48.6083 -109.5264 312° West 440 506 39,900  Level Salt Lake Center
Fri 07:50:50 PM 48.6883 -109.6675 311° West 444 511 39,900  Level Salt Lake Center
Fri 07:51:52 PM 48.7856 -109.8339 312° West 442 509 39,900  Level Salt Lake Center
Fri 07:52:54 PM 48.8650 -109.9731 311° West 441 507 39,900  Level Salt Lake Center
Fri 07:53:24 PM 48.8833 -110.0500 290° West 430 495 39,900  Level Edmonton Center
Fri 07:54:24 PM 48.9500 -110.2000 304° West 430 495 39,900 50 Level Edmonton Center
Fri 07:55:24 PM 49.0333 -110.3333 314° West 430 495 40,000 50 Climbing Edmonton Center
Fri 07:56:24 PM 49.1167 -110.4667 314° West 430 495 40,000  Level Edmonton Center
Fri 07:57:24 PM 49.1833 -110.6000 307° West 430 495 40,000 -50 Level Edmonton Center
Fri 07:58:24 PM 49.2667 -110.7500 310° West 430 495 39,900  Descending Edmonton Center
Fri 07:59:24 PM 49.3333 -110.8833 308° West 430 495 40,000 50 Climbing Edmonton Center
Fri 08:00:24 PM 49.4167 -111.0167 314° West 430 495 40,000  Level Edmonton Center
Fri 08:01:24 PM 49.5000 -111.1667 311° West 430 495 40,000  Level Edmonton Center
Fri 08:02:24 PM 49.5833 -111.3000 314° West 430 495 40,000  Level Edmonton Center
Fri 08:03:24 PM 49.6667 -111.4500 311° West 430 495 40,000 -50 Level Edmonton Center
Fri 08:04:24 PM 49.7333 -111.5833 308° West 420 483 39,900 -50 Descending Edmonton Center
Fri 08:05:24 PM 49.8167 -111.7333 311° West 420 483 39,900  Level Edmonton Center
Fri 08:06:24 PM 49.8667 -111.8667 300° West 420 483 39,900 -500 Level Edmonton Center
Fri 08:07:24 PM 49.9667 -112.0167 316° Northwest 430 495 38,900 -1,300 Descending Edmonton Center
Fri 08:08:24 PM 50.0333 -112.1667 305° West 430 495 37,300 -2,150 Descending Edmonton Center
Fri 08:09:24 PM 50.1167 -112.3000 314° West 430 495 34,600 -2,750 Descending Edmonton Center
Fri 08:10:24 PM 50.1667 -112.4500 298° West 400 460 31,800 -3,000 Descending Edmonton Center
Fri 08:11:24 PM 50.2500 -112.5667 318° Northwest 390 449 28,600 -3,250 Descending Edmonton Center
Fri 08:12:24 PM 50.3167 -112.7167 305° West 390 449 25,300 -2,850 Descending Edmonton Center
Fri 08:13:24 PM 50.3833 -112.8333 312° West 390 449 22,900 -2,550 Descending Edmonton Center
Fri 08:14:24 PM 50.4500 -112.9667 308° West 370 426 20,200 -2,550 Descending Edmonton Center
Fri 08:15:24 PM 50.5167 -113.0833 312° West 360 414 17,800 -2,500 Descending Edmonton Center
Fri 08:16:24 PM 50.5667 -113.2000 304° West 350 403 15,200 -1,700 Descending Edmonton Center
Fri 08:17:24 PM 50.6167 -113.3000 308° West 320 368 14,400 -700 Descending Edmonton Center
Fri 08:18:24 PM 50.6833 -113.4167 312° West 270 311 13,800 -900 Descending Edmonton Center
Fri 08:19:24 PM 50.7167 -113.4833 308° West 250 288 12,600 -1,300 Descending Edmonton Center
Fri 08:20:24 PM 50.7667 -113.5667 314° West 250 288 11,200 -1,400 Descending Edmonton Center
Fri 08:21:24 PM 50.8000 -113.6833 294° West 250 288 9,800 -1,350 Descending Edmonton Center
Fri 08:22:24 PM 50.8167 -113.7667 288° West 240 276 8,500 -1,350 Descending Edmonton Center
Fri 08:23:24 PM 50.8500 -113.8833 294° West 240 276 7,100 -667 Descending Edmonton Center
Fri 08:25:24 PM 50.9000 -114.0500 295° West 200 230 6,500 -400 Descending Edmonton Center
Fri 08:26:24 PM 50.9500 -114.0333 12° North 170 196 5,900 -750 Descending Edmonton Center
Fri 08:27:24 PM 51.0000 -114.0500 348° North 170 196 5,000 -900 Descending Edmonton Center
Fri 08:28:24 PM 51.0333 -114.0500 360° North 150 173 4,100 -700 Descending Edmonton Center
Fri 08:29:24 PM 51.0833 -114.0333 12° North 140 161 3,600 -500 Descending Edmonton Center

Login

Don't have an account? Register now (free) for customized features, flight alerts, and more!